sensor_id;sensor_type;location;lat;lon;timestamp;temperature;humidity
4922;DHT22;16625;53.624;10.106;2024-01-06T00:00:25;-0.60;1.00
4922;DHT22;16625;53.624;10.106;2024-01-06T00:02:52;-0.60;1.00
4922;DHT22;16625;53.624;10.106;2024-01-06T00:05:19;-0.60;1.00
4922;DHT22;16625;53.624;10.106;2024-01-06T00:07:46;-0.60;1.00
4922;DHT22;16625;53.624;10.106;2024-01-06T00:10:13;0.60;1.00
4922;DHT22;16625;53.624;10.106;2024-01-06T00:12:40;-0.60;1.00
4922;DHT22;16625;53.624;10.106;2024-01-06T00:15:08;-0.60;1.00
4922;DHT22;16625;53.624;10.106;2024-01-06T00:17:36;-0.60;1.00
4922;DHT22;16625;53.624;10.106;2024-01-06T00:20:04;0.30;1.00
4922;DHT22;16625;53.624;10.106;2024-01-06T00:22:30;-0.60;99.90
4922;DHT22;16625;53.624;10.106;2024-01-06T00:24:57;0.80;1.00
4922;DHT22;16625;53.624;10.106;2024-01-06T00:27:25;0.60;1.00
4922;DHT22;16625;53.624;10.106;2024-01-06T00:29:52;-0.60;1.00
4922;DHT22;16625;53.624;10.106;2024-01-06T00:32:20;-0.60;1.00
4922;DHT22;16625;53.624;10.106;2024-01-06T00:34:47;-0.60;51.40
4922;DHT22;16625;53.624;10.106;2024-01-06T00:37:14;-0.60;99.90
4922;DHT22;16625;53.624;10.106;2024-01-06T00:39:41;-0.60;99.90
4922;DHT22;16625;53.624;10.106;2024-01-06T00:42:08;-0.50;99.90
4922;DHT22;16625;53.624;10.106;2024-01-06T00:44:36;-0.20;99.90
4922;DHT22;16625;53.624;10.106;2024-01-06T00:47:03;-0.50;51.40
4922;DHT22;16625;53.624;10.106;2024-01-06T00:49:32;-0.50;1.00
4922;DHT22;16625;53.624;10.106;2024-01-06T00:51:58;-0.60;1.00
4922;DHT22;16625;53.624;10.106;2024-01-06T00:54:25;-0.50;34.10
4922;DHT22;16625;53.624;10.106;2024-01-06T00:56:52;-0.50;54.00
4922;DHT22;16625;53.624;10.106;2024-01-06T00:59:19;-0.60;94.40
4922;DHT22;16625;53.624;10.106;2024-01-06T01:01:46;-0.60;99.90
4922;DHT22;16625;53.624;10.106;2024-01-06T01:04:13;-0.60;99.90
4922;DHT22;16625;53.624;10.106;2024-01-06T01:06:41;-0.50;99.90
4922;DHT22;16625;53.624;10.106;2024-01-06T01:09:08;-0.60;99.90
4922;DHT22;16625;53.624;10.106;2024-01-06T01:11:36;-0.60;99.90
4922;DHT22;16625;53.624;10.106;2024-01-06T01:14:02;1.30;1.00
4922;DHT22;16625;53.624;10.106;2024-01-06T01:16:29;-0.60;1.00
4922;DHT22;16625;53.624;10.106;2024-01-06T01:18:57;-0.60;1.00
4922;DHT22;16625;53.624;10.106;2024-01-06T01:21:24;0.70;1.00
4922;DHT22;16625;53.624;10.106;2024-01-06T01:23:53;-0.60;1.00
4922;DHT22;16625;53.624;10.106;2024-01-06T01:26:20;-0.60;1.00
4922;DHT22;16625;53.624;10.106;2024-01-06T01:28:46;-0.60;1.00
4922;DHT22;16625;53.624;10.106;2024-01-06T01:31:13;-0.60;1.00
4922;DHT22;16625;53.624;10.106;2024-01-06T01:33:40;-0.60;1.00
4922;DHT22;16625;53.624;10.106;2024-01-06T01:36:07;-0.60;1.00
4922;DHT22;16625;53.624;10.106;2024-01-06T01:38:34;-0.60;4.90
4922;DHT22;16625;53.624;10.106;2024-01-06T01:41:02;-0.60;1.00
4922;DHT22;16625;53.624;10.106;2024-01-06T01:43:29;-0.60;1.00
4922;DHT22;16625;53.624;10.106;2024-01-06T01:45:57;-0.60;1.00
4922;DHT22;16625;53.624;10.106;2024-01-06T01:48:25;0.30;20.40
4922;DHT22;16625;53.624;10.106;2024-01-06T01:50:53;-0.60;59.20
4922;DHT22;16625;53.624;10.106;2024-01-06T01:53:22;-0.60;58.40
4922;DHT22;16625;53.624;10.106;2024-01-06T01:55:50;-0.60;93.70
4922;DHT22;16625;53.624;10.106;2024-01-06T01:58:19;-0.50;55.50
4922;DHT22;16625;53.624;10.106;2024-01-06T02:00:46;-0.50;1.00
4922;DHT22;16625;53.624;10.106;2024-01-06T02:03:13;-0.60;1.00
4922;DHT22;16625;53.624;10.106;2024-01-06T02:05:41;-0.60;1.00
4922;DHT22;16625;53.624;10.106;2024-01-06T02:08:08;-0.50;1.00
4922;DHT22;16625;53.624;10.106;2024-01-06T02:10:36;-0.60;1.00
4922;DHT22;16625;53.624;10.106;2024-01-06T02:13:10;-0.50;1.00
4922;DHT22;16625;53.624;10.106;2024-01-06T02:15:38;0.10;1.00
4922;DHT22;16625;53.624;10.106;2024-01-06T02:18:05;-0.60;99.90
4922;DHT22;16625;53.624;10.106;2024-01-06T02:20:32;-0.50;99.90
4922;DHT22;16625;53.624;10.106;2024-01-06T02:23:01;-0.60;99.90
4922;DHT22;16625;53.624;10.106;2024-01-06T02:25:28;-0.60;99.90
4922;DHT22;16625;53.624;10.106;2024-01-06T02:27:55;-0.60;99.90
4922;DHT22;16625;53.624;10.106;2024-01-06T02:30:22;-0.60;99.90
4922;DHT22;16625;53.624;10.106;2024-01-06T02:32:48;-0.60;1.00
4922;DHT22;16625;53.624;10.106;2024-01-06T02:35:15;-0.50;1.00
4922;DHT22;16625;53.624;10.106;2024-01-06T02:37:42;-0.60;99.90
4922;DHT22;16625;53.624;10.106;2024-01-06T02:40:13;-0.70;99.90
4922;DHT22;16625;53.624;10.106;2024-01-06T02:42:40;-0.70;1.00
4922;DHT22;16625;53.624;10.106;2024-01-06T02:45:07;-0.70;1.00
4922;DHT22;16625;53.624;10.106;2024-01-06T02:47:35;-0.70;1.00
4922;DHT22;16625;53.624;10.106;2024-01-06T02:50:02;0.80;1.00
4922;DHT22;16625;53.624;10.106;2024-01-06T02:52:28;-0.70;1.00
4922;DHT22;16625;53.624;10.106;2024-01-06T02:54:55;-0.70;3.90
4922;DHT22;16625;53.624;10.106;2024-01-06T02:57:24;1.00;36.90
4922;DHT22;16625;53.624;10.106;2024-01-06T02:59:51;-0.70;30.40
4922;DHT22;16625;53.624;10.106;2024-01-06T03:02:17;-0.60;1.00
4922;DHT22;16625;53.624;10.106;2024-01-06T03:04:44;0.50;1.00
4922;DHT22;16625;53.624;10.106;2024-01-06T03:07:11;-0.70;1.00
4922;DHT22;16625;53.624;10.106;2024-01-06T03:09:38;-0.70;1.00
4922;DHT22;16625;53.624;10.106;2024-01-06T03:12:05;-0.70;15.70
4922;DHT22;16625;53.624;10.106;2024-01-06T03:14:34;-0.80;5.70
4922;DHT22;16625;53.624;10.106;2024-01-06T03:17:01;-0.80;76.70
4922;DHT22;16625;53.624;10.106;2024-01-06T03:19:28;-0.80;99.90
4922;DHT22;16625;53.624;10.106;2024-01-06T03:21:55;-0.70;99.90
4922;DHT22;16625;53.624;10.106;2024-01-06T03:24:25;-0.70;99.90
4922;DHT22;16625;53.624;10.106;2024-01-06T03:26:52;-0.80;99.90
4922;DHT22;16625;53.624;10.106;2024-01-06T03:29:19;-0.80;97.80
4922;DHT22;16625;53.624;10.106;2024-01-06T03:31:47;-0.80;99.90
4922;DHT22;16625;53.624;10.106;2024-01-06T03:34:14;-0.80;99.90
4922;DHT22;16625;53.624;10.106;2024-01-06T03:36:41;-0.40;99.90
4922;DHT22;16625;53.624;10.106;2024-01-06T03:39:07;-0.80;99.90
4922;DHT22;16625;53.624;10.106;2024-01-06T03:41:35;-0.70;97.00
4922;DHT22;16625;53.624;10.106;2024-01-06T03:44:03;-0.70;94.60
4922;DHT22;16625;53.624;10.106;2024-01-06T03:46:30;-0.80;99.90
4922;DHT22;16625;53.624;10.106;2024-01-06T03:48:58;-0.80;99.90
4922;DHT22;16625;53.624;10.106;2024-01-06T03:51:25;-0.80;99.90
4922;DHT22;16625;53.624;10.106;2024-01-06T03:53:52;-0.80;99.90
4922;DHT22;16625;53.624;10.106;2024-01-06T03:56:19;-0.70;95.80
4922;DHT22;16625;53.624;10.106;2024-01-06T03:58:46;-0.70;1.00
4922;DHT22;16625;53.624;10.106;2024-01-06T04:01:13;-0.30;1.00
4922;DHT22;16625;53.624;10.106;2024-01-06T04:03:40;-0.70;1.00
4922;DHT22;16625;53.624;10.106;2024-01-06T04:06:09;-0.80;1.00
4922;DHT22;16625;53.624;10.106;2024-01-06T04:08:36;-0.70;1.00
4922;DHT22;16625;53.624;10.106;2024-01-06T04:11:03;0.50;99.90
4922;DHT22;16625;53.624;10.106;2024-01-06T04:13:30;-0.70;99.90
4922;DHT22;16625;53.624;10.106;2024-01-06T04:15:57;-0.70;99.90
4922;DHT22;16625;53.624;10.106;2024-01-06T04:18:24;-0.70;99.90
4922;DHT22;16625;53.624;10.106;2024-01-06T04:20:50;-0.70;98.50
4922;DHT22;16625;53.624;10.106;2024-01-06T04:23:19;-0.80;1.00
4922;DHT22;16625;53.624;10.106;2024-01-06T04:25:45;-0.70;1.00
4922;DHT22;16625;53.624;10.106;2024-01-06T04:28:12;-0.70;1.00
4922;DHT22;16625;53.624;10.106;2024-01-06T04:30:38;-0.80;1.00
4922;DHT22;16625;53.624;10.106;2024-01-06T04:33:05;0.20;1.00
4922;DHT22;16625;53.624;10.106;2024-01-06T04:35:32;-0.80;99.90
4922;DHT22;16625;53.624;10.106;2024-01-06T04:37:59;-0.80;99.90
4922;DHT22;16625;53.624;10.106;2024-01-06T04:40:27;-0.80;99.90
4922;DHT22;16625;53.624;10.106;2024-01-06T04:42:54;-0.80;99.90
4922;DHT22;16625;53.624;10.106;2024-01-06T04:45:21;0.20;99.90
4922;DHT22;16625;53.624;10.106;2024-01-06T04:47:49;-0.80;99.90
4922;DHT22;16625;53.624;10.106;2024-01-06T04:50:16;1.00;99.90
4922;DHT22;16625;53.624;10.106;2024-01-06T04:52:43;-0.80;99.90
4922;DHT22;16625;53.624;10.106;2024-01-06T04:55:10;-0.80;99.90
4922;DHT22;16625;53.624;10.106;2024-01-06T04:57:39;-0.80;99.90
4922;DHT22;16625;53.624;10.106;2024-01-06T05:00:06;-0.70;99.90
4922;DHT22;16625;53.624;10.106;2024-01-06T05:02:34;-0.80;1.00
4922;DHT22;16625;53.624;10.106;2024-01-06T05:05:01;-0.80;1.00
4922;DHT22;16625;53.624;10.106;2024-01-06T05:07:28;-0.80;1.00
4922;DHT22;16625;53.624;10.106;2024-01-06T05:09:55;-0.80;1.00
4922;DHT22;16625;53.624;10.106;2024-01-06T05:12:22;-0.70;33.30
4922;DHT22;16625;53.624;10.106;2024-01-06T05:14:51;-0.70;1.00
4922;DHT22;16625;53.624;10.106;2024-01-06T05:17:18;-0.70;1.00
4922;DHT22;16625;53.624;10.106;2024-01-06T05:19:45;-0.70;1.00
4922;DHT22;16625;53.624;10.106;2024-01-06T05:22:12;-0.70;99.90
4922;DHT22;16625;53.624;10.106;2024-01-06T05:24:38;-0.70;68.50
4922;DHT22;16625;53.624;10.106;2024-01-06T05:27:05;-0.70;1.00
4922;DHT22;16625;53.624;10.106;2024-01-06T05:29:32;-0.70;1.00
4922;DHT22;16625;53.624;10.106;2024-01-06T05:32:01;-0.70;1.00
4922;DHT22;16625;53.624;10.106;2024-01-06T05:34:28;-0.80;1.00
4922;DHT22;16625;53.624;10.106;2024-01-06T05:36:55;-0.80;1.00
4922;DHT22;16625;53.624;10.106;2024-01-06T05:39:21;-0.70;1.00
4922;DHT22;16625;53.624;10.106;2024-01-06T05:41:48;-0.70;75.60
4922;DHT22;16625;53.624;10.106;2024-01-06T05:44:15;-0.70;1.00
4922;DHT22;16625;53.624;10.106;2024-01-06T05:46:42;-0.70;7.70
4922;DHT22;16625;53.624;10.106;2024-01-06T05:49:11;-0.70;1.00
4922;DHT22;16625;53.624;10.106;2024-01-06T05:51:43;-0.70;1.00
4922;DHT22;16625;53.624;10.106;2024-01-06T05:54:10;-0.70;1.00
4922;DHT22;16625;53.624;10.106;2024-01-06T05:56:37;-0.80;1.00
4922;DHT22;16625;53.624;10.106;2024-01-06T05:59:04;-0.80;1.00
4922;DHT22;16625;53.624;10.106;2024-01-06T06:01:31;-0.80;1.00
4922;DHT22;16625;53.624;10.106;2024-01-06T06:03:58;-0.80;1.00
4922;DHT22;16625;53.624;10.106;2024-01-06T06:06:26;-0.80;1.00
4922;DHT22;16625;53.624;10.106;2024-01-06T06:08:53;-0.80;1.00
4922;DHT22;16625;53.624;10.106;2024-01-06T06:11:20;-0.70;1.00
4922;DHT22;16625;53.624;10.106;2024-01-06T06:13:47;-0.70;1.00
4922;DHT22;16625;53.624;10.106;2024-01-06T06:16:14;-0.70;1.00
4922;DHT22;16625;53.624;10.106;2024-01-06T06:18:41;-0.60;1.00
4922;DHT22;16625;53.624;10.106;2024-01-06T06:21:08;-0.70;99.90
4922;DHT22;16625;53.624;10.106;2024-01-06T06:23:36;-0.30;99.90
4922;DHT22;16625;53.624;10.106;2024-01-06T06:26:05;-0.70;99.90
4922;DHT22;16625;53.624;10.106;2024-01-06T06:28:32;-0.70;99.90
4922;DHT22;16625;53.624;10.106;2024-01-06T06:30:59;-0.70;99.90
4922;DHT22;16625;53.624;10.106;2024-01-06T06:33:27;-0.70;99.90
4922;DHT22;16625;53.624;10.106;2024-01-06T06:35:54;0.00;99.90
4922;DHT22;16625;53.624;10.106;2024-01-06T06:38:21;-0.70;99.90
4922;DHT22;16625;53.624;10.106;2024-01-06T06:40:49;-0.70;99.90
4922;DHT22;16625;53.624;10.106;2024-01-06T06:43:16;-0.70;99.90
4922;DHT22;16625;53.624;10.106;2024-01-06T06:45:43;-0.80;73.80
4922;DHT22;16625;53.624;10.106;2024-01-06T06:48:10;-0.80;99.90
4922;DHT22;16625;53.624;10.106;2024-01-06T06:50:37;-0.80;99.90
4922;DHT22;16625;53.624;10.106;2024-01-06T06:53:03;-0.80;99.90
4922;DHT22;16625;53.624;10.106;2024-01-06T06:55:30;-0.80;99.90
4922;DHT22;16625;53.624;10.106;2024-01-06T06:57:59;-0.80;99.90
4922;DHT22;16625;53.624;10.106;2024-01-06T07:00:26;-0.80;99.90
4922;DHT22;16625;53.624;10.106;2024-01-06T07:02:52;-0.80;1.00
4922;DHT22;16625;53.624;10.106;2024-01-06T07:05:19;-0.80;1.00
4922;DHT22;16625;53.624;10.106;2024-01-06T07:07:46;-0.80;1.00
4922;DHT22;16625;53.624;10.106;2024-01-06T07:10:13;-0.80;1.00
4922;DHT22;16625;53.624;10.106;2024-01-06T07:12:40;-0.80;99.90
4922;DHT22;16625;53.624;10.106;2024-01-06T07:15:09;-0.80;99.90
4922;DHT22;16625;53.624;10.106;2024-01-06T07:17:36;-0.80;99.90
4922;DHT22;16625;53.624;10.106;2024-01-06T07:20:04;-0.80;99.90
4922;DHT22;16625;53.624;10.106;2024-01-06T07:22:32;-0.80;99.90
4922;DHT22;16625;53.624;10.106;2024-01-06T07:25:00;-0.90;99.90
4922;DHT22;16625;53.624;10.106;2024-01-06T07:27:26;-0.90;1.00
4922;DHT22;16625;53.624;10.106;2024-01-06T07:29:53;-0.90;1.00
4922;DHT22;16625;53.624;10.106;2024-01-06T07:32:23;-0.90;99.90
4922;DHT22;16625;53.624;10.106;2024-01-06T07:34:50;-0.90;99.90
4922;DHT22;16625;53.624;10.106;2024-01-06T07:37:17;0.10;99.90
4922;DHT22;16625;53.624;10.106;2024-01-06T07:39:43;-0.80;99.90
4922;DHT22;16625;53.624;10.106;2024-01-06T07:42:10;-0.80;50.90
4922;DHT22;16625;53.624;10.106;2024-01-06T07:44:37;-0.80;1.00
4922;DHT22;16625;53.624;10.106;2024-01-06T07:47:04;-0.80;1.00
4922;DHT22;16625;53.624;10.106;2024-01-06T07:49:33;-0.30;1.00
4922;DHT22;16625;53.624;10.106;2024-01-06T07:51:59;-0.80;1.00
4922;DHT22;16625;53.624;10.106;2024-01-06T07:54:27;-0.80;14.40
4922;DHT22;16625;53.624;10.106;2024-01-06T07:56:54;-0.80;14.00
4922;DHT22;16625;53.624;10.106;2024-01-06T07:59:21;-0.80;1.00
4922;DHT22;16625;53.624;10.106;2024-01-06T08:01:49;-0.70;1.00
4922;DHT22;16625;53.624;10.106;2024-01-06T08:04:16;-0.70;1.00
4922;DHT22;16625;53.624;10.106;2024-01-06T08:06:44;0.40;99.90
4922;DHT22;16625;53.624;10.106;2024-01-06T08:09:11;-0.70;1.00
4922;DHT22;16625;53.624;10.106;2024-01-06T08:11:38;-0.70;1.00
4922;DHT22;16625;53.624;10.106;2024-01-06T08:14:05;-0.70;1.00
4922;DHT22;16625;53.624;10.106;2024-01-06T08:16:32;0.80;99.90
4922;DHT22;16625;53.624;10.106;2024-01-06T08:18:59;-0.70;69.40
4922;DHT22;16625;53.624;10.106;2024-01-06T08:21:26;-0.70;1.00
4922;DHT22;16625;53.624;10.106;2024-01-06T08:23:55;-0.70;1.00
4922;DHT22;16625;53.624;10.106;2024-01-06T08:26:22;-0.70;1.00
4922;DHT22;16625;53.624;10.106;2024-01-06T08:28:48;-0.70;1.00
4922;DHT22;16625;53.624;10.106;2024-01-06T08:31:15;-0.70;99.90
4922;DHT22;16625;53.624;10.106;2024-01-06T08:33:42;-0.70;99.90
4922;DHT22;16625;53.624;10.106;2024-01-06T08:36:09;0.70;99.90
4922;DHT22;16625;53.624;10.106;2024-01-06T08:38:36;-0.20;99.90
4922;DHT22;16625;53.624;10.106;2024-01-06T08:41:05;-0.70;99.90
4922;DHT22;16625;53.624;10.106;2024-01-06T08:43:32;-0.70;99.90
4922;DHT22;16625;53.624;10.106;2024-01-06T08:45:59;-0.70;99.90
4922;DHT22;16625;53.624;10.106;2024-01-06T08:48:27;-0.70;99.90
4922;DHT22;16625;53.624;10.106;2024-01-06T08:50:54;-0.70;4.60
4922;DHT22;16625;53.624;10.106;2024-01-06T08:53:21;-0.60;2.80
4922;DHT22;16625;53.624;10.106;2024-01-06T08:55:48;-0.70;1.00
4922;DHT22;16625;53.624;10.106;2024-01-06T08:58:16;-0.60;1.00
4922;DHT22;16625;53.624;10.106;2024-01-06T09:00:44;-0.60;1.00
4922;DHT22;16625;53.624;10.106;2024-01-06T09:03:11;-0.60;1.00
4922;DHT22;16625;53.624;10.106;2024-01-06T09:05:38;-0.60;99.90
4922;DHT22;16625;53.624;10.106;2024-01-06T09:08:06;-0.60;99.90
4922;DHT22;16625;53.624;10.106;2024-01-06T09:10:33;-0.70;99.90
4922;DHT22;16625;53.624;10.106;2024-01-06T09:13:00;-0.60;99.90
4922;DHT22;16625;53.624;10.106;2024-01-06T09:15:28;-0.60;99.90
4922;DHT22;16625;53.624;10.106;2024-01-06T09:17:55;-0.60;99.90
4922;DHT22;16625;53.624;10.106;2024-01-06T09:20:22;-0.50;99.90
4922;DHT22;16625;53.624;10.106;2024-01-06T09:22:49;-0.50;99.90
4922;DHT22;16625;53.624;10.106;2024-01-06T09:25:17;-0.40;99.90
4922;DHT22;16625;53.624;10.106;2024-01-06T09:27:44;-0.40;99.90
4922;DHT22;16625;53.624;10.106;2024-01-06T09:30:11;-0.40;80.60
4922;DHT22;16625;53.624;10.106;2024-01-06T09:32:39;-0.40;10.10
4922;DHT22;16625;53.624;10.106;2024-01-06T09:35:07;-0.40;1.00
4922;DHT22;16625;53.624;10.106;2024-01-06T09:37:34;-0.40;1.00
4922;DHT22;16625;53.624;10.106;2024-01-06T09:40:01;-0.40;1.00
4922;DHT22;16625;53.624;10.106;2024-01-06T09:42:28;-0.30;1.00
4922;DHT22;16625;53.624;10.106;2024-01-06T09:44:55;-0.30;99.90
4922;DHT22;16625;53.624;10.106;2024-01-06T09:47:23;-0.40;99.90
4922;DHT22;16625;53.624;10.106;2024-01-06T09:50:21;0.10;99.90
4922;DHT22;16625;53.624;10.106;2024-01-06T09:53:04;-0.30;99.90
4922;DHT22;16625;53.624;10.106;2024-01-06T09:55:34;-0.40;99.90
4922;DHT22;16625;53.624;10.106;2024-01-06T09:58:02;-0.30;58.40
4922;DHT22;16625;53.624;10.106;2024-01-06T10:00:31;-0.30;1.00
4922;DHT22;16625;53.624;10.106;2024-01-06T10:02:59;1.60;91.20
4922;DHT22;16625;53.624;10.106;2024-01-06T10:05:28;1.20;99.90
4922;DHT22;16625;53.624;10.106;2024-01-06T10:07:56;0.80;45.10
4922;DHT22;16625;53.624;10.106;2024-01-06T10:10:28;1.30;1.00
4922;DHT22;16625;53.624;10.106;2024-01-06T10:18:59;-0.20;1.00
4922;DHT22;16625;53.624;10.106;2024-01-06T10:21:28;-0.10;1.00
4922;DHT22;16625;53.624;10.106;2024-01-06T10:23:57;-0.20;1.00
4922;DHT22;16625;53.624;10.106;2024-01-06T10:26:25;0.90;1.00
4922;DHT22;16625;53.624;10.106;2024-01-06T10:28:57;-0.20;99.90
4922;DHT22;16625;53.624;10.106;2024-01-06T10:31:25;0.80;1.00
4922;DHT22;16625;53.624;10.106;2024-01-06T10:33:53;0.30;1.00
4922;DHT22;16625;53.624;10.106;2024-01-06T10:36:22;0.90;1.00
4922;DHT22;16625;53.624;10.106;2024-01-06T10:38:52;-0.20;99.90
4922;DHT22;16625;53.624;10.106;2024-01-06T10:41:19;-0.20;99.90
4922;DHT22;16625;53.624;10.106;2024-01-06T10:43:47;-0.20;99.90
4922;DHT22;16625;53.624;10.106;2024-01-06T10:46:14;-0.10;99.90
4922;DHT22;16625;53.624;10.106;2024-01-06T10:48:42;1.00;99.90
4922;DHT22;16625;53.624;10.106;2024-01-06T10:51:11;-0.20;99.90
4922;DHT22;16625;53.624;10.106;2024-01-06T10:53:40;-0.10;99.70
4922;DHT22;16625;53.624;10.106;2024-01-06T10:56:09;-0.10;99.90
4922;DHT22;16625;53.624;10.106;2024-01-06T10:58:36;-0.10;54.00
4922;DHT22;16625;53.624;10.106;2024-01-06T11:01:08;-0.10;1.00
4922;DHT22;16625;53.624;10.106;2024-01-06T11:03:36;-0.10;1.00
4922;DHT22;16625;53.624;10.106;2024-01-06T11:06:05;-0.10;1.00
4922;DHT22;16625;53.624;10.106;2024-01-06T11:08:35;-0.10;1.00
4922;DHT22;16625;53.624;10.106;2024-01-06T11:11:04;-0.10;1.00
4922;DHT22;16625;53.624;10.106;2024-01-06T11:13:33;-0.10;1.00
4922;DHT22;16625;53.624;10.106;2024-01-06T11:16:00;0.00;1.00
4922;DHT22;16625;53.624;10.106;2024-01-06T11:18:35;0.00;1.00
4922;DHT22;16625;53.624;10.106;2024-01-06T11:21:18;0.00;1.00
4922;DHT22;16625;53.624;10.106;2024-01-06T11:24:14;1.20;1.00
4922;DHT22;16625;53.624;10.106;2024-01-06T11:26:45;0.00;1.00
4922;DHT22;16625;53.624;10.106;2024-01-06T11:29:18;0.00;1.00
4922;DHT22;16625;53.624;10.106;2024-01-06T11:32:18;0.00;1.00
4922;DHT22;16625;53.624;10.106;2024-01-06T11:34:50;-0.10;1.00
4922;DHT22;16625;53.624;10.106;2024-01-06T11:37:24;0.00;1.00
4922;DHT22;16625;53.624;10.106;2024-01-06T11:39:51;0.00;99.90
4922;DHT22;16625;53.624;10.106;2024-01-06T11:42:18;0.00;99.90
4922;DHT22;16625;53.624;10.106;2024-01-06T11:44:50;-0.10;99.90
4922;DHT22;16625;53.624;10.106;2024-01-06T11:47:17;0.00;99.90
4922;DHT22;16625;53.624;10.106;2024-01-06T11:49:54;-0.10;99.90
4922;DHT22;16625;53.624;10.106;2024-01-06T11:52:24;-0.10;99.90
4922;DHT22;16625;53.624;10.106;2024-01-06T11:54:52;0.50;99.90
4922;DHT22;16625;53.624;10.106;2024-01-06T11:57:20;-0.10;1.00
4922;DHT22;16625;53.624;10.106;2024-01-06T11:59:48;0.20;1.00
4922;DHT22;16625;53.624;10.106;2024-01-06T12:02:18;-0.20;1.00
4922;DHT22;16625;53.624;10.106;2024-01-06T12:04:48;-0.20;1.00
4922;DHT22;16625;53.624;10.106;2024-01-06T12:07:16;-0.20;1.00
4922;DHT22;16625;53.624;10.106;2024-01-06T12:09:43;-0.10;1.00
4922;DHT22;16625;53.624;10.106;2024-01-06T12:12:10;-0.20;99.90
4922;DHT22;16625;53.624;10.106;2024-01-06T12:14:40;-0.20;1.00
4922;DHT22;16625;53.624;10.106;2024-01-06T12:17:09;-0.30;99.90
4922;DHT22;16625;53.624;10.106;2024-01-06T12:19:39;0.50;99.90
4922;DHT22;16625;53.624;10.106;2024-01-06T12:22:07;-0.30;1.00
4922;DHT22;16625;53.624;10.106;2024-01-06T12:24:34;-0.40;1.00
4922;DHT22;16625;53.624;10.106;2024-01-06T12:27:03;-0.40;1.00
4922;DHT22;16625;53.624;10.106;2024-01-06T12:29:32;-0.40;1.00
4922;DHT22;16625;53.624;10.106;2024-01-06T12:31:59;-0.40;1.00
4922;DHT22;16625;53.624;10.106;2024-01-06T12:34:28;-0.40;91.60
4922;DHT22;16625;53.624;10.106;2024-01-06T12:36:55;-0.40;99.90
4922;DHT22;16625;53.624;10.106;2024-01-06T12:39:22;-0.40;99.90
4922;DHT22;16625;53.624;10.106;2024-01-06T12:41:50;0.00;99.90
4922;DHT22;16625;53.624;10.106;2024-01-06T12:44:18;-0.50;99.90
4922;DHT22;16625;53.624;10.106;2024-01-06T12:46:45;-0.50;99.90
4922;DHT22;16625;53.624;10.106;2024-01-06T12:49:12;-0.50;1.00
4922;DHT22;16625;53.624;10.106;2024-01-06T12:51:42;-0.50;1.00
4922;DHT22;16625;53.624;10.106;2024-01-06T12:54:10;-0.50;1.00
4922;DHT22;16625;53.624;10.106;2024-01-06T12:56:36;-0.30;1.00
4922;DHT22;16625;53.624;10.106;2024-01-06T12:59:03;-0.40;5.40
4922;DHT22;16625;53.624;10.106;2024-01-06T13:01:31;-0.40;1.00
4922;DHT22;16625;53.624;10.106;2024-01-06T13:03:58;-0.40;1.00
4922;DHT22;16625;53.624;10.106;2024-01-06T13:06:26;0.60;1.00
4922;DHT22;16625;53.624;10.106;2024-01-06T13:08:54;-0.40;1.00
4922;DHT22;16625;53.624;10.106;2024-01-06T13:11:21;-0.40;1.00
4922;DHT22;16625;53.624;10.106;2024-01-06T13:13:48;-0.30;1.00
4922;DHT22;16625;53.624;10.106;2024-01-06T13:16:15;-0.50;1.00
4922;DHT22;16625;53.624;10.106;2024-01-06T13:18:42;-0.50;1.00
4922;DHT22;16625;53.624;10.106;2024-01-06T13:21:09;-0.50;83.20
4922;DHT22;16625;53.624;10.106;2024-01-06T13:23:37;-0.50;99.90
4922;DHT22;16625;53.624;10.106;2024-01-06T13:26:05;-0.50;99.90
4922;DHT22;16625;53.624;10.106;2024-01-06T13:28:34;-0.50;99.90
4922;DHT22;16625;53.624;10.106;2024-01-06T13:31:01;-0.50;99.90
4922;DHT22;16625;53.624;10.106;2024-01-06T13:33:28;-0.50;99.90
4922;DHT22;16625;53.624;10.106;2024-01-06T13:35:55;-0.50;99.90
4922;DHT22;16625;53.624;10.106;2024-01-06T13:38:23;-0.50;99.90
4922;DHT22;16625;53.624;10.106;2024-01-06T13:40:51;-0.50;99.90
4922;DHT22;16625;53.624;10.106;2024-01-06T13:43:20;-0.50;99.90
4922;DHT22;16625;53.624;10.106;2024-01-06T13:45:47;-0.50;99.90
4922;DHT22;16625;53.624;10.106;2024-01-06T13:48:14;-0.60;99.90
4922;DHT22;16625;53.624;10.106;2024-01-06T13:50:44;-0.60;99.90
4922;DHT22;16625;53.624;10.106;2024-01-06T13:53:11;-0.60;99.90
4922;DHT22;16625;53.624;10.106;2024-01-06T13:55:39;-0.60;99.90
4922;DHT22;16625;53.624;10.106;2024-01-06T13:58:06;-0.60;1.00
4922;DHT22;16625;53.624;10.106;2024-01-06T14:00:36;-0.60;99.90
4922;DHT22;16625;53.624;10.106;2024-01-06T14:03:04;-0.70;99.90
4922;DHT22;16625;53.624;10.106;2024-01-06T14:05:32;-0.80;1.00
4922;DHT22;16625;53.624;10.106;2024-01-06T14:08:00;-0.70;1.00
4922;DHT22;16625;53.624;10.106;2024-01-06T14:10:27;-0.70;1.00
4922;DHT22;16625;53.624;10.106;2024-01-06T14:12:55;-0.70;1.00
4922;DHT22;16625;53.624;10.106;2024-01-06T14:15:22;-0.70;10.60
4922;DHT22;16625;53.624;10.106;2024-01-06T14:17:50;-0.70;1.00
4922;DHT22;16625;53.624;10.106;2024-01-06T14:20:17;-0.70;54.70
4922;DHT22;16625;53.624;10.106;2024-01-06T14:22:44;-0.70;1.00
4922;DHT22;16625;53.624;10.106;2024-01-06T14:25:12;-0.70;9.40
4922;DHT22;16625;53.624;10.106;2024-01-06T14:27:39;-0.70;2.30
4922;DHT22;16625;53.624;10.106;2024-01-06T14:30:07;-0.70;1.00
4922;DHT22;16625;53.624;10.106;2024-01-06T14:32:35;-0.70;1.00
4922;DHT22;16625;53.624;10.106;2024-01-06T14:35:04;-0.70;1.00
4922;DHT22;16625;53.624;10.106;2024-01-06T14:37:32;-0.70;1.00
4922;DHT22;16625;53.624;10.106;2024-01-06T14:39:59;-0.70;1.00
4922;DHT22;16625;53.624;10.106;2024-01-06T14:42:30;-0.80;1.00
4922;DHT22;16625;53.624;10.106;2024-01-06T14:45:01;-0.80;1.00
4922;DHT22;16625;53.624;10.106;2024-01-06T14:47:28;-0.80;1.00
4922;DHT22;16625;53.624;10.106;2024-01-06T14:49:55;-0.80;1.50
4922;DHT22;16625;53.624;10.106;2024-01-06T14:52:23;-0.80;48.10
4922;DHT22;16625;53.624;10.106;2024-01-06T14:54:50;-0.80;99.90
4922;DHT22;16625;53.624;10.106;2024-01-06T14:57:17;-0.80;99.90
4922;DHT22;16625;53.624;10.106;2024-01-06T14:59:44;-0.80;99.90
4922;DHT22;16625;53.624;10.106;2024-01-06T15:02:11;0.30;99.90
4922;DHT22;16625;53.624;10.106;2024-01-06T15:04:39;-0.80;99.90
4922;DHT22;16625;53.624;10.106;2024-01-06T15:07:05;-0.90;99.90
4922;DHT22;16625;53.624;10.106;2024-01-06T15:09:38;-0.90;99.90
4922;DHT22;16625;53.624;10.106;2024-01-06T15:12:05;-0.90;99.90
4922;DHT22;16625;53.624;10.106;2024-01-06T15:14:32;-0.90;99.90
4922;DHT22;16625;53.624;10.106;2024-01-06T15:16:59;-0.80;99.90
4922;DHT22;16625;53.624;10.106;2024-01-06T15:19:26;-0.80;99.90
4922;DHT22;16625;53.624;10.106;2024-01-06T15:21:55;-0.90;99.90
4922;DHT22;16625;53.624;10.106;2024-01-06T15:24:22;-0.90;99.90
4922;DHT22;16625;53.624;10.106;2024-01-06T15:26:51;-0.90;99.90
4922;DHT22;16625;53.624;10.106;2024-01-06T15:29:18;-0.90;99.90
4922;DHT22;16625;53.624;10.106;2024-01-06T15:31:45;-0.90;99.90
4922;DHT22;16625;53.624;10.106;2024-01-06T15:34:12;-1.00;1.00
4922;DHT22;16625;53.624;10.106;2024-01-06T15:36:39;-1.00;1.00
4922;DHT22;16625;53.624;10.106;2024-01-06T15:39:06;-1.00;41.90
4922;DHT22;16625;53.624;10.106;2024-01-06T15:41:32;-1.00;99.90
4922;DHT22;16625;53.624;10.106;2024-01-06T15:44:01;-1.00;99.90
4922;DHT22;16625;53.624;10.106;2024-01-06T15:46:28;-1.00;99.90
4922;DHT22;16625;53.624;10.106;2024-01-06T15:48:54;-1.00;99.90